D/T METAR WX W/DIR W/SPE G/SPE TEMP DEWP
22/01/20 07:20 EGCC 220720Z AUTO 26003KT 0150 R23R/0800 FG VV/// 07/07 Q1038 FG W (260°) 3.5mph 7°C 7°C
22/01/20 06:50 EGCC 220650Z AUTO 00000KT 0300 R23R/0800 FG VV/// 07/07 Q1038 FG N (0°) 7°C 7°C
22/01/20 06:20 EGCC 220620Z AUTO VRB01KT 0150 R23R/1000 FG VV/// 07/07 Q1038 NOSIG FG N (0°) 1.2mph 7°C 7°C
22/01/20 05:50 EGCC 220550Z AUTO 24002KT 0200 R23R/1100 FG VV/// 07/07 Q1038 NOSIG FG WSW (240°) 2.3mph 7°C 7°C
22/01/20 05:20 EGCC 220520Z AUTO 00000KT 0150 R23R/0450 FG VV/// 07/07 Q1038 NOSIG FG N (0°) 7°C 7°C
22/01/20 04:50 EGCC 220450Z AUTO VRB01KT 0150 R23R/0500 FG VV/// 07/07 Q1038 NOSIG FG N (0°) 1.2mph 7°C 7°C
22/01/20 04:20 EGCC 220420Z AUTO VRB02KT 0150 R23R/0450 FG VV/// 07/06 Q1038 NOSIG FG N (0°) 2.3mph 7°C 6°C
22/01/20 03:50 EGCC 220350Z AUTO VRB02KT 0150 R23R/0450 FG VV/// 07/07 Q1038 NOSIG FG N (0°) 2.3mph 7°C 7°C
22/01/20 03:20 EGCC 220320Z AUTO 20002KT 0200 R23R/0550 FG VV/// 07/07 Q1038 NOSIG FG SSW (200°) 2.3mph 7°C 7°C
22/01/20 02:50 EGCC 220250Z AUTO VRB02KT 0150 R23R/0450 FG VV/// 07/07 Q1039 NOSIG FG N (0°) 2.3mph 7°C 7°C
22/01/20 02:20 EGCC 220220Z AUTO VRB01KT 0150 R23R/0400 FG VV/// 07/07 Q1039 NOSIG FG N (0°) 1.2mph 7°C 7°C
22/01/20 01:50 EGCC 220150Z AUTO VRB01KT 0100 R23R/0350 FG VV/// 07/07 Q1039 NOSIG FG N (0°) 1.2mph 7°C 7°C
22/01/20 01:20 EGCC 220120Z AUTO 24002KT 0100 R23R/0375 FG VV/// 07/07 Q1039 NOSIG FG WSW (240°) 2.3mph 7°C 7°C
22/01/20 00:50 EGCC 220050Z AUTO 24002KT 0100 R23R/0375 FG VV/// 07/07 Q1039 FG WSW (240°) 2.3mph 7°C 7°C
22/01/20 00:20 EGCC 220020Z AUTO VRB01KT 0100 R23R/0325 FG VV/// 07/07 Q1039 NOSIG FG N (0°) 1.2mph 7°C 7°C
21/01/20 23:50 EGCC 212350Z AUTO VRB01KT 0150 R23R/0450 FG VV/// 07/07 Q1040 NOSIG FG N (0°) 1.2mph 7°C 7°C
21/01/20 23:20 EGCC 212320Z AUTO 27002KT 0200 R23R/P1500 FG VV/// 07/07 Q1040 FG W (270°) 2.3mph 7°C 7°C
21/01/20 22:50 EGCC 212250Z AUTO 30002KT 0800 R23R/P1500 FG OVC002 07/07 Q1039 FG WNW (300°) 2.3mph 7°C 7°C
21/01/20 21:50 EGCC 212150Z AUTO VRB02KT 2900 BR OVC001 07/07 Q1040 RERA REDZ TEMPO 0300 FG BR N (0°) 2.3mph 7°C 7°C
21/01/20 21:20 EGCC 212120Z 33004KT 2200 DZ BR OVC002 07/07 Q1040 REDZ TEMPO 0300 FG OVC001 DZ BR NNW (330°) 4.6mph 7°C 7°C
21/01/20 21:20 EGCC 212120Z 33004KT 2200 DZ BR OVC002 07/07 Q1040 REDZ DZ BR NNW (330°) 4.6mph 7°C 7°C
21/01/20 20:20 EGCC 212020Z 33002KT 1700 BR OVC002 07/07 Q1040 TEMPO 0300 FG BKN001 BR NNW (330°) 2.3mph 7°C 7°C
21/01/20 19:50 EGCC 211950Z 33004KT 1700 BR BKN002 07/07 Q1040 TEMPO 0300 FG BKN001 BR NNW (330°) 4.6mph 7°C 7°C
21/01/20 19:50 EGCC 211950Z 33004KT 1700 BR BKN002 07/07 Q1040 BR NNW (330°) 4.6mph 7°C 7°C
21/01/20 19:20 EGCC 211920Z 32003KT 2400 BR FEW002 BKN004 07/07 Q1040 BR NW (320°) 3.5mph 7°C 7°C
21/01/20 18:20 EGCC 211820Z 32003KT 4100 BR BKN003 07/07 Q1040 TEMPO 0800 FG BKN001 BR NW (320°) 3.5mph 7°C 7°C
21/01/20 17:50 EGCC 211750Z 32004KT 2700 BR OVC002 07/07 Q1040 TEMPO 0700 FG OVC001 BR NW (320°) 4.6mph 7°C 7°C
21/01/20 17:20 EGCC 211720Z 30005KT 1100 R23R/P1500 BR OVC002 07/07 Q1039 TEMPO 0700 FG OVC001 BR WNW (300°) 5.8mph 7°C 7°C
21/01/20 17:20 EGCC 211720Z 30005KT 1100 R23R/P1500 BR OVC002 07/07 Q1039 BR WNW (300°) 5.8mph 7°C 7°C
21/01/20 16:50 EGCC 211650Z VRB03KT 1100 R23R/P1500 BR OVC002 07/06 Q1040 BR N (0°) 3.5mph 7°C 6°C
21/01/20 16:20 EGCC 211620Z 24002KT 0400 R23R/0650 FG OVC002 06/06 Q1040 FG WSW (240°) 2.3mph 6°C 6°C
21/01/20 15:20 EGCC 211520Z VRB02KT 0700 R23R/1000 FG VV/// 06/06 Q1040 FG N (0°) 2.3mph 6°C 6°C
21/01/20 15:20 EGCC 211520Z VRB02KT 0700 R23R/1000 FG VV/// 06/06 Q1040 TEMPO 1200 BR BKN002 FG N (0°) 2.3mph 6°C 6°C
21/01/20 14:50 EGCC 211450Z AUTO VRB01KT 1000 R23R/1300 BR OVC002 06/05 Q1040 BR N (0°) 1.2mph 6°C 5°C
21/01/20 14:20 EGCC 211420Z AUTO VRB02KT 1400 R23R/P1500 BR OVC002 06/05 Q1040 BR N (0°) 2.3mph 6°C 5°C
21/01/20 13:50 EGCC 211350Z AUTO 21002KT 1600 BR BKN004 OVC007 06/05 Q1041 BR SSW (210°) 2.3mph 6°C 5°C
21/01/20 13:20 EGCC 211320Z VRB02KT 2900 HZ OVC006 05/05 Q1041 HZ N (0°) 2.3mph 5°C 5°C
21/01/20 12:50 EGCC 211250Z VRB02KT 7000 BKN008 OVC015 05/04 Q1041 N (0°) 2.3mph 5°C 4°C
21/01/20 12:20 EGCC 211220Z AUTO VRB03KT 4200 HZ BKN009 OVC015 05/04 Q1041 HZ N (0°) 3.5mph 5°C 4°C
21/01/20 11:50 EGCC 211150Z VRB03KT 9999 BKN013 05/04 Q1042 N (0°) 3.5mph 5°C 4°C
21/01/20 10:50 EGCC 211050Z AUTO VRB03KT 3900 HZ OVC017 05/04 Q1042 HZ N (0°) 3.5mph 5°C 4°C
21/01/20 10:20 EGCC 211020Z VRB03KT 9999 BKN018 05/04 Q1042 BECMG BKN014 N (0°) 3.5mph 5°C 4°C
21/01/20 10:20 EGCC 211020Z VRB03KT 9999 BKN018 05/04 Q1042 N (0°) 3.5mph 5°C 4°C
21/01/20 09:50 EGCC 210950Z 16003KT 9999 BKN018 05/04 Q1042 SSE (160°) 3.5mph 5°C 4°C
21/01/20 09:20 EGCC 210920Z 16002KT 9999 BKN020 05/03 Q1041 SSE (160°) 2.3mph 5°C 3°C
21/01/20 08:50 EGCC 210850Z 19002KT 9999 BKN022 04/03 Q1041 S (190°) 2.3mph 4°C 3°C
21/01/20 08:20 EGCC 210820Z VRB03KT 9999 BKN024 04/03 Q1041 N (0°) 3.5mph 4°C 3°C
21/01/20 07:50 EGCC 210750Z VRB03KT 9999 BKN024 04/03 Q1041 N (0°) 3.5mph 4°C 3°C